createdAt,value
2018-07-15T00:01:11.946Z,20.31
2018-07-15T00:03:39.811Z,20.29
2018-07-15T00:06:07.529Z,20.26
2018-07-15T00:08:35.583Z,20.24
2018-07-15T00:11:03.266Z,20.20
2018-07-15T00:13:30.820Z,20.18
2018-07-15T00:15:58.508Z,20.13
2018-07-15T00:18:26.147Z,20.10
2018-07-15T00:20:53.759Z,20.08
2018-07-15T00:23:21.857Z,20.06
2018-07-15T00:25:49.540Z,20.04
2018-07-15T00:28:17.230Z,20.03
2018-07-15T00:30:45.057Z,20.00
2018-07-15T00:33:12.696Z,19.98
2018-07-15T00:35:40.327Z,19.95
2018-07-15T00:38:08.300Z,19.93
2018-07-15T00:40:35.935Z,19.91
2018-07-15T00:43:03.533Z,19.89
2018-07-15T00:45:31.367Z,19.87
2018-07-15T00:47:59.038Z,19.84
2018-07-15T00:50:26.660Z,19.82
2018-07-15T00:52:54.457Z,19.78
2018-07-15T00:55:22.159Z,19.76
2018-07-15T00:57:49.742Z,19.74
2018-07-15T01:01:23.324Z,19.72
2018-07-15T01:03:51.162Z,19.67
2018-07-15T01:06:18.906Z,19.63
2018-07-15T01:08:46.543Z,19.59
2018-07-15T01:11:14.177Z,19.57
2018-07-15T01:13:42.230Z,19.55
2018-07-15T01:16:09.860Z,19.52
2018-07-15T01:18:37.530Z,19.48
2018-07-15T01:21:05.503Z,19.45
2018-07-15T01:23:33.123Z,19.41
2018-07-15T01:26:00.674Z,19.38
2018-07-15T01:28:28.293Z,19.34
2018-07-15T01:30:55.923Z,19.28
2018-07-15T01:33:23.585Z,19.24
2018-07-15T01:35:51.590Z,19.19
2018-07-15T01:38:19.213Z,19.16
2018-07-15T01:40:46.804Z,19.14
2018-07-15T01:43:14.749Z,19.14
2018-07-15T01:45:42.386Z,19.11
2018-07-15T01:48:09.934Z,19.11
2018-07-15T01:50:37.701Z,19.07
2018-07-15T01:53:05.343Z,19.05
2018-07-15T01:55:32.959Z,19.03
2018-07-15T01:58:00.918Z,19.01
2018-07-15T02:00:28.533Z,18.99
2018-07-15T02:02:56.181Z,18.97
2018-07-15T02:05:24.067Z,18.96
2018-07-15T02:08:22.393Z,18.94
2018-07-15T02:10:50.402Z,18.91
2018-07-15T02:13:17.991Z,18.88
2018-07-15T02:15:45.685Z,18.86
2018-07-15T02:18:13.711Z,18.81
2018-07-15T02:20:41.329Z,18.79
2018-07-15T02:23:08.970Z,18.76
2018-07-15T02:25:36.896Z,18.72
2018-07-15T02:28:04.458Z,18.71
2018-07-15T02:30:32.008Z,18.69
2018-07-15T02:32:59.900Z,18.68
2018-07-15T02:35:27.505Z,18.65
2018-07-15T02:37:55.164Z,18.63
2018-07-15T02:40:23.099Z,18.61
2018-07-15T02:42:50.761Z,18.61
2018-07-15T02:45:18.393Z,18.60
2018-07-15T02:47:46.263Z,18.59
2018-07-15T02:50:13.888Z,18.58
2018-07-15T02:52:41.521Z,18.57
2018-07-15T02:55:09.609Z,18.56
2018-07-15T02:57:37.258Z,18.54
2018-07-15T03:00:05.030Z,18.54
2018-07-15T03:02:33.010Z,18.55
2018-07-15T03:05:00.617Z,18.56
2018-07-15T03:07:28.383Z,18.55
2018-07-15T03:09:56.315Z,18.57
2018-07-15T03:12:23.897Z,18.58
2018-07-15T03:14:51.477Z,18.59
2018-07-15T03:17:19.563Z,18.61
2018-07-15T03:19:47.109Z,18.62
2018-07-15T03:22:14.702Z,18.63
2018-07-15T03:24:42.878Z,18.64
2018-07-15T03:27:10.664Z,18.65
2018-07-15T03:29:38.276Z,18.65
2018-07-15T03:32:06.050Z,18.65
2018-07-15T03:34:33.693Z,18.65
2018-07-15T03:37:01.290Z,18.66
2018-07-15T03:39:29.286Z,18.68
2018-07-15T03:41:56.907Z,18.70
2018-07-15T03:44:24.534Z,18.71
2018-07-15T03:46:52.464Z,18.75
2018-07-15T03:49:20.106Z,18.77
2018-07-15T03:51:47.739Z,18.80
2018-07-15T03:54:15.851Z,18.83
2018-07-15T03:56:43.434Z,18.85
2018-07-15T03:59:11.040Z,18.89
2018-07-15T04:01:39.074Z,18.93
2018-07-15T04:04:06.598Z,18.98
2018-07-15T04:06:34.136Z,19.03
2018-07-15T04:09:02.427Z,19.06
2018-07-15T04:11:30.016Z,19.09
2018-07-15T04:13:57.658Z,19.14
2018-07-15T04:16:25.698Z,19.17
2018-07-15T04:18:53.351Z,19.21
2018-07-15T04:21:20.982Z,19.27
2018-07-15T04:23:49.032Z,19.32
2018-07-15T04:26:16.662Z,19.37
2018-07-15T04:28:44.274Z,19.42
2018-07-15T04:31:12.284Z,19.47
2018-07-15T04:33:39.901Z,19.51
2018-07-15T04:36:07.520Z,19.58
2018-07-15T04:38:35.430Z,19.62
2018-07-15T04:41:03.137Z,19.68
2018-07-15T04:43:30.717Z,19.74
2018-07-15T04:45:58.663Z,19.79
2018-07-15T04:48:26.292Z,19.87
2018-07-15T04:50:53.855Z,19.92
2018-07-15T04:53:21.814Z,19.97
2018-07-15T04:55:49.424Z,20.03
2018-07-15T04:58:17.054Z,20.08
2018-07-15T05:00:44.982Z,20.15
2018-07-15T05:03:12.642Z,20.21
2018-07-15T05:05:40.243Z,20.28
2018-07-15T05:08:08.159Z,20.34
2018-07-15T05:10:36.017Z,20.39
2018-07-15T05:13:03.680Z,20.46
2018-07-15T05:15:31.489Z,20.53
2018-07-15T05:17:59.101Z,20.60
2018-07-15T05:20:26.642Z,20.67
2018-07-15T05:22:54.616Z,20.74
2018-07-15T05:25:22.272Z,20.81
2018-07-15T05:27:49.925Z,20.88
2018-07-15T05:30:18.067Z,20.97
2018-07-15T05:32:45.677Z,21.03
2018-07-15T05:35:13.241Z,21.11
2018-07-15T05:37:41.020Z,21.19
2018-07-15T05:40:08.628Z,21.28
2018-07-15T05:42:36.253Z,21.37
2018-07-15T05:45:04.221Z,21.45
2018-07-15T05:47:31.856Z,21.57
2018-07-15T05:49:59.567Z,21.64
2018-07-15T05:52:27.569Z,21.27
2018-07-15T05:54:55.215Z,21.83
2018-07-15T05:57:22.914Z,21.92
2018-07-15T05:59:50.956Z,22.02
2018-07-15T06:02:18.553Z,21.58
2018-07-15T06:04:46.181Z,22.22
2018-07-15T06:07:14.219Z,22.35
2018-07-15T06:09:41.868Z,22.46
2018-07-15T06:12:09.731Z,22.57
2018-07-15T06:14:37.621Z,22.70
2018-07-15T06:17:05.302Z,22.84
2018-07-15T06:19:32.945Z,22.98
2018-07-15T06:22:01.029Z,23.08
2018-07-15T06:24:28.546Z,23.17
2018-07-15T06:26:56.164Z,23.27
2018-07-15T06:29:24.147Z,23.40
2018-07-15T06:31:51.788Z,23.51
2018-07-15T06:34:19.466Z,23.63
2018-07-15T06:36:47.379Z,23.75
2018-07-15T06:39:15.025Z,23.86
2018-07-15T06:41:42.682Z,23.97
2018-07-15T06:44:10.779Z,24.06
2018-07-15T06:46:38.341Z,24.15
2018-07-15T06:49:06.022Z,24.24
2018-07-15T06:51:33.912Z,24.31
2018-07-15T06:54:01.677Z,24.38
2018-07-15T06:56:29.126Z,24.47
2018-07-15T06:58:57.826Z,24.54
2018-07-15T07:01:25.541Z,24.62
2018-07-15T07:03:53.141Z,24.70
2018-07-15T07:06:21.071Z,24.79
2018-07-15T07:08:49.713Z,24.87
2018-07-15T07:11:17.395Z,24.96
2018-07-15T07:13:45.644Z,25.06
2018-07-15T07:16:13.285Z,25.15
2018-07-15T07:18:40.910Z,25.23
2018-07-15T07:21:08.821Z,25.29
2018-07-15T07:23:36.417Z,25.38
2018-07-15T07:26:04.073Z,25.44
2018-07-15T07:28:32.014Z,25.50
2018-07-15T07:30:59.659Z,25.57
2018-07-15T07:33:27.275Z,25.62
2018-07-15T07:35:55.017Z,25.69
2018-07-15T07:38:22.653Z,25.74
2018-07-15T07:40:50.263Z,25.79
2018-07-15T07:43:18.090Z,25.84
2018-07-15T07:45:45.635Z,25.89
2018-07-15T07:48:13.248Z,25.94
2018-07-15T07:50:41.059Z,26.02
2018-07-15T07:53:08.703Z,26.07
2018-07-15T07:55:36.338Z,26.12
2018-07-15T07:58:04.305Z,26.19
2018-07-15T08:00:31.897Z,26.25
2018-07-15T08:02:59.529Z,26.30
2018-07-15T08:05:27.415Z,25.86
2018-07-15T08:07:55.003Z,26.38
2018-07-15T08:10:22.578Z,26.42
2018-07-15T08:12:50.574Z,26.46
2018-07-15T08:15:18.351Z,26.49
2018-07-15T08:17:45.904Z,26.53
2018-07-15T08:20:13.663Z,26.55
2018-07-15T08:22:41.316Z,26.57
2018-07-15T08:25:09.018Z,26.59
2018-07-15T08:27:36.987Z,26.62
2018-07-15T08:30:15.797Z,26.64
2018-07-15T08:32:43.594Z,26.67
2018-07-15T08:35:11.205Z,26.69
2018-07-15T08:37:39.030Z,26.73
2018-07-15T08:40:06.995Z,26.76
2018-07-15T08:42:34.547Z,26.80
2018-07-15T08:45:02.218Z,26.82
2018-07-15T08:47:30.178Z,26.86
2018-07-15T08:49:57.836Z,26.91
2018-07-15T08:52:25.487Z,26.95
2018-07-15T08:54:53.334Z,26.99
2018-07-15T08:57:21.055Z,27.03
2018-07-15T08:59:48.683Z,27.07
2018-07-15T09:02:16.694Z,27.13
2018-07-15T09:04:44.341Z,27.20
2018-07-15T09:07:11.986Z,27.26
2018-07-15T09:09:40.334Z,27.32
2018-07-15T09:12:07.929Z,27.37
2018-07-15T09:14:35.531Z,27.44
2018-07-15T09:17:03.959Z,27.49
2018-07-15T09:19:31.630Z,27.54
2018-07-15T09:21:59.255Z,27.60
2018-07-15T09:24:27.267Z,27.64
2018-07-15T09:26:54.870Z,27.69
2018-07-15T09:29:22.458Z,27.72
2018-07-15T09:31:50.281Z,27.76
2018-07-15T09:34:18.097Z,27.82
2018-07-15T09:36:45.708Z,27.86
2018-07-15T09:39:13.601Z,27.91
2018-07-15T09:41:41.274Z,27.98
2018-07-15T09:44:08.881Z,28.05
2018-07-15T09:46:36.757Z,28.10
2018-07-15T09:49:04.653Z,28.18
2018-07-15T09:51:32.226Z,28.26
2018-07-15T09:54:00.349Z,28.36
2018-07-15T09:56:27.938Z,28.49
2018-07-15T09:58:55.514Z,28.65
2018-07-15T10:01:23.663Z,28.82
2018-07-15T10:03:51.289Z,28.58
2018-07-15T10:06:18.914Z,29.18
2018-07-15T10:08:46.974Z,29.34
2018-07-15T10:11:14.595Z,29.52
2018-07-15T10:13:42.321Z,29.66
2018-07-15T10:16:10.368Z,29.78
2018-07-15T10:18:38.080Z,29.92
2018-07-15T10:21:05.657Z,30.04
2018-07-15T10:23:33.589Z,30.16
2018-07-15T10:26:01.177Z,30.28
2018-07-15T10:28:28.756Z,30.36
2018-07-15T10:30:56.726Z,30.47
2018-07-15T10:33:24.286Z,30.56
2018-07-15T10:35:51.902Z,30.60
2018-07-15T10:38:19.755Z,30.67
2018-07-15T10:40:47.392Z,30.70
2018-07-15T10:43:15.068Z,30.77
2018-07-15T10:45:42.846Z,30.82
2018-07-15T10:48:10.498Z,30.85
2018-07-15T10:50:38.079Z,30.89
2018-07-15T10:53:06.223Z,30.91
2018-07-15T10:55:34.031Z,30.96
2018-07-15T10:58:01.577Z,31.00
2018-07-15T11:00:29.604Z,31.05
2018-07-15T11:02:57.212Z,31.05
2018-07-15T11:05:24.770Z,31.02
2018-07-15T11:07:52.725Z,31.01
2018-07-15T11:10:20.351Z,31.01
2018-07-15T11:12:47.948Z,31.02
2018-07-15T11:15:16.141Z,31.01
2018-07-15T11:17:43.728Z,31.01
2018-07-15T11:20:11.567Z,31.01
2018-07-15T11:22:39.447Z,31.01
2018-07-15T11:25:07.093Z,31.00
2018-07-15T11:27:34.691Z,30.99
2018-07-15T11:30:02.848Z,31.01
2018-07-15T11:32:30.480Z,31.05
2018-07-15T11:34:58.107Z,31.10
2018-07-15T11:37:25.986Z,31.08
2018-07-15T11:39:53.634Z,31.08
2018-07-15T11:42:21.241Z,31.10
2018-07-15T11:44:49.036Z,31.12
2018-07-15T11:47:16.639Z,31.12
2018-07-15T11:49:44.298Z,31.15
2018-07-15T11:52:12.078Z,31.20
2018-07-15T11:54:39.696Z,31.24
2018-07-15T11:57:07.319Z,31.31
2018-07-15T11:59:35.330Z,31.36
2018-07-15T12:02:03.003Z,31.38
2018-07-15T12:04:30.576Z,31.40
2018-07-15T12:06:58.325Z,31.38
2018-07-15T12:09:25.949Z,31.37
2018-07-15T12:11:53.450Z,31.35
2018-07-15T12:14:21.207Z,31.34
2018-07-15T12:16:48.804Z,31.32
2018-07-15T12:19:16.496Z,31.28
2018-07-15T12:21:44.574Z,31.23
2018-07-15T12:24:12.219Z,31.11
2018-07-15T12:26:39.874Z,30.94
2018-07-15T12:29:07.860Z,30.81
2018-07-15T12:31:35.689Z,30.69
2018-07-15T12:34:03.340Z,30.57
2018-07-15T12:36:31.246Z,30.47
2018-07-15T12:38:58.795Z,30.40
2018-07-15T12:41:26.358Z,30.33
2018-07-15T12:43:54.167Z,30.28
2018-07-15T12:46:21.867Z,30.21
2018-07-15T12:48:49.480Z,30.11
2018-07-15T12:51:17.240Z,30.01
2018-07-15T12:53:44.853Z,29.86
2018-07-15T12:56:12.896Z,29.69
2018-07-15T12:58:40.868Z,29.53
2018-07-15T13:01:08.506Z,29.39
2018-07-15T13:03:36.069Z,29.27
2018-07-15T13:06:04.074Z,29.15
2018-07-15T13:08:31.626Z,29.04
2018-07-15T13:10:59.260Z,28.90
2018-07-15T13:13:27.148Z,28.77
2018-07-15T13:15:54.693Z,28.62
2018-07-15T13:18:22.422Z,28.48
2018-07-15T13:20:50.329Z,28.35
2018-07-15T13:23:18.106Z,28.27
2018-07-15T13:25:45.751Z,28.23
2018-07-15T13:28:13.658Z,28.20
2018-07-15T13:30:41.328Z,28.13
2018-07-15T13:33:08.957Z,28.07
2018-07-15T13:35:36.768Z,28.02
2018-07-15T13:38:04.363Z,27.95
2018-07-15T13:40:31.973Z,27.85
2018-07-15T13:42:59.683Z,27.82
2018-07-15T13:45:27.273Z,27.78
2018-07-15T13:47:54.911Z,27.71
2018-07-15T13:50:22.696Z,27.64
2018-07-15T13:52:50.600Z,27.56
2018-07-15T13:55:18.157Z,27.48
2018-07-15T13:57:46.120Z,27.44
2018-07-15T14:00:13.733Z,27.41
2018-07-15T14:02:41.342Z,27.40
2018-07-15T14:05:08.995Z,27.40
2018-07-15T14:07:36.552Z,27.39
2018-07-15T14:10:04.327Z,27.39
2018-07-15T14:12:32.207Z,27.37
2018-07-15T14:14:59.787Z,27.34
2018-07-15T14:17:27.541Z,27.30
2018-07-15T14:20:10.441Z,27.27
2018-07-15T14:22:37.974Z,26.76
2018-07-15T14:25:06.104Z,27.23
2018-07-15T14:27:33.948Z,27.24
2018-07-15T14:30:01.569Z,27.22
2018-07-15T14:32:29.692Z,27.20
2018-07-15T14:34:57.504Z,27.21
2018-07-15T14:37:25.126Z,27.21
2018-07-15T14:39:52.868Z,27.25
2018-07-15T14:42:20.519Z,27.27
2018-07-15T14:44:48.091Z,27.32
2018-07-15T14:47:15.921Z,27.34
2018-07-15T14:49:43.679Z,27.39
2018-07-15T14:52:11.241Z,27.46
2018-07-15T14:54:38.963Z,27.51
2018-07-15T14:57:06.903Z,27.54
2018-07-15T14:59:34.429Z,27.57
2018-07-15T15:02:02.234Z,27.62
2018-07-15T15:04:30.018Z,27.63
2018-07-15T15:06:57.647Z,27.63
2018-07-15T15:09:25.318Z,27.62
2018-07-15T15:11:53.060Z,27.60
2018-07-15T15:14:20.649Z,27.56
2018-07-15T15:16:48.332Z,27.54
2018-07-15T15:19:15.945Z,27.54
2018-07-15T15:21:43.482Z,27.56
2018-07-15T15:24:11.190Z,27.60
2018-07-15T15:26:38.987Z,27.65
2018-07-15T15:29:06.636Z,27.70
2018-07-15T15:31:34.371Z,27.75
2018-07-15T15:34:01.951Z,27.80
2018-07-15T15:36:29.509Z,27.84
2018-07-15T15:38:57.461Z,27.92
2018-07-15T15:41:25.139Z,27.99
2018-07-15T15:43:52.732Z,28.04
2018-07-15T15:46:20.479Z,28.09
2018-07-15T15:48:48.211Z,28.14
2018-07-15T15:51:15.812Z,28.19
2018-07-15T15:53:43.448Z,28.26
2018-07-15T15:56:11.116Z,28.33
2018-07-15T15:58:38.696Z,28.37
2018-07-15T16:01:06.507Z,28.41
2018-07-15T16:03:34.348Z,28.44
2018-07-15T16:06:02.183Z,28.46
2018-07-15T16:08:29.821Z,28.45
2018-07-15T16:10:57.331Z,28.44
2018-07-15T16:13:24.949Z,28.41
2018-07-15T16:15:52.743Z,28.37
2018-07-15T16:18:20.372Z,28.33
2018-07-15T16:20:47.984Z,28.31
2018-07-15T16:23:15.699Z,28.28
2018-07-15T16:25:43.481Z,28.26
2018-07-15T16:28:11.298Z,28.22
2018-07-15T16:30:38.952Z,28.13
2018-07-15T16:33:06.605Z,28.08
2018-07-15T16:35:34.221Z,28.04
2018-07-15T16:38:01.841Z,28.00
2018-07-15T16:40:29.612Z,27.54
2018-07-15T16:42:57.194Z,27.95
2018-07-15T16:45:24.822Z,27.92
2018-07-15T16:47:52.449Z,27.91
2018-07-15T16:50:20.083Z,27.88
2018-07-15T16:52:47.902Z,27.84
2018-07-15T16:55:15.659Z,27.81
2018-07-15T16:57:43.316Z,27.78
2018-07-15T17:00:10.970Z,27.73
2018-07-15T17:02:38.698Z,27.68
2018-07-15T17:05:06.472Z,27.62
2018-07-15T17:07:34.197Z,27.58
2018-07-15T17:10:01.925Z,27.53
2018-07-15T17:12:29.479Z,27.48
2018-07-15T17:14:57.100Z,27.43
2018-07-15T17:17:24.667Z,27.39
2018-07-15T17:19:52.241Z,27.34
2018-07-15T17:22:19.898Z,27.29
2018-07-15T17:24:47.648Z,27.24
2018-07-15T17:27:15.210Z,27.22
2018-07-15T17:29:43.039Z,27.20
2018-07-15T17:32:10.790Z,27.17
2018-07-15T17:34:38.292Z,27.14
2018-07-15T17:37:06.277Z,27.09
2018-07-15T17:39:34.083Z,27.07
2018-07-15T17:42:01.669Z,27.04
2018-07-15T17:44:29.376Z,27.03
2018-07-15T17:46:57.117Z,27.03
2018-07-15T17:49:24.669Z,27.02
2018-07-15T17:51:52.323Z,26.98
2018-07-15T17:54:19.953Z,26.94
2018-07-15T17:56:47.490Z,26.90
2018-07-15T17:59:15.083Z,26.88
2018-07-15T18:01:42.743Z,26.86
2018-07-15T18:04:10.313Z,26.84
2018-07-15T18:06:38.050Z,26.37
2018-07-15T18:09:06.335Z,26.80
2018-07-15T18:11:33.954Z,26.79
2018-07-15T18:14:01.742Z,26.76
2018-07-15T18:16:29.512Z,26.72
2018-07-15T18:18:57.161Z,26.69
2018-07-15T18:21:24.915Z,26.66
2018-07-15T18:23:52.675Z,26.64
2018-07-15T18:26:20.289Z,26.57
2018-07-15T18:28:48.034Z,26.52
2018-07-15T18:31:15.862Z,26.47
2018-07-15T18:33:43.384Z,26.47
2018-07-15T18:36:11.122Z,26.45
2018-07-15T18:38:38.881Z,26.44
2018-07-15T18:41:06.488Z,26.43
2018-07-15T18:43:34.333Z,26.41
2018-07-15T18:46:01.948Z,26.40
2018-07-15T18:48:29.534Z,26.38
2018-07-15T18:50:57.310Z,26.34
2018-07-15T18:53:25.063Z,26.31
2018-07-15T18:55:52.651Z,26.25
2018-07-15T18:58:20.269Z,26.23
2018-07-15T19:00:48.061Z,26.19
2018-07-15T19:03:22.381Z,26.15
2018-07-15T19:05:50.091Z,26.11
2018-07-15T19:08:17.623Z,26.08
2018-07-15T19:10:45.367Z,26.04
2018-07-15T19:13:12.955Z,26.01
2018-07-15T19:15:40.573Z,25.98
2018-07-15T19:18:08.209Z,25.95
2018-07-15T19:20:36.055Z,25.94
2018-07-15T19:23:03.602Z,25.92
2018-07-15T19:25:31.528Z,25.88
2018-07-15T19:27:59.342Z,25.87
2018-07-15T19:30:27.005Z,25.83
2018-07-15T19:32:55.135Z,25.80
2018-07-15T19:35:22.806Z,25.77
2018-07-15T19:37:50.451Z,25.74
2018-07-15T19:40:18.081Z,25.69
2018-07-15T19:42:45.790Z,25.66
2018-07-15T19:45:13.386Z,25.63
2018-07-15T19:47:41.040Z,25.59
2018-07-15T19:50:08.740Z,25.53
2018-07-15T19:52:36.378Z,25.52
2018-07-15T19:55:04.121Z,25.48
2018-07-15T19:57:31.758Z,25.46
2018-07-15T19:59:59.307Z,25.42
2018-07-15T20:02:27.133Z,25.38
2018-07-15T20:04:54.887Z,25.34
2018-07-15T20:07:22.400Z,25.29
2018-07-15T20:09:49.895Z,25.25
2018-07-15T20:12:17.552Z,25.22
2018-07-15T20:14:45.109Z,25.18
2018-07-15T20:17:12.974Z,25.14
2018-07-15T20:19:40.738Z,25.10
2018-07-15T20:22:08.570Z,25.06
2018-07-15T20:24:36.340Z,25.01
2018-07-15T20:27:04.042Z,24.95
2018-07-15T20:29:31.598Z,24.90
2018-07-15T20:31:59.299Z,24.85
2018-07-15T20:34:27.322Z,24.82
2018-07-15T20:36:54.784Z,24.75
2018-07-15T20:39:22.537Z,24.71
2018-07-15T20:41:50.170Z,24.64
2018-07-15T20:44:17.861Z,24.58
2018-07-15T20:46:45.447Z,24.54
2018-07-15T20:49:12.963Z,24.48
2018-07-15T20:51:40.512Z,24.42
2018-07-15T20:54:08.153Z,24.35
2018-07-15T20:56:35.738Z,24.30
2018-07-15T20:59:03.286Z,24.24
2018-07-15T21:01:30.993Z,24.17
2018-07-15T21:04:02.560Z,24.11
2018-07-15T21:06:30.080Z,24.04
2018-07-15T21:08:58.081Z,23.98
2018-07-15T21:11:25.881Z,23.92
2018-07-15T21:13:53.425Z,23.86
2018-07-15T21:16:21.255Z,23.80
2018-07-15T21:18:49.054Z,23.74
2018-07-15T21:21:16.656Z,23.67
2018-07-15T21:23:44.275Z,23.61
2018-07-15T21:26:11.949Z,23.54
2018-07-15T21:28:39.481Z,23.47
2018-07-15T21:31:07.222Z,23.42
2018-07-15T21:33:34.955Z,23.35
2018-07-15T21:36:02.895Z,23.30
2018-07-15T21:38:30.547Z,23.23
2018-07-15T21:40:58.205Z,23.17
2018-07-15T21:43:25.745Z,23.12
2018-07-15T21:45:53.418Z,23.04
2018-07-15T21:48:21.045Z,22.98
2018-07-15T21:50:48.599Z,22.92
2018-07-15T21:53:16.253Z,22.89
2018-07-15T21:55:43.839Z,22.83
2018-07-15T21:58:11.345Z,22.77
2018-07-15T22:00:39.103Z,22.73
2018-07-15T22:03:06.743Z,22.68
2018-07-15T22:05:34.388Z,22.63
2018-07-15T22:08:13.178Z,22.58
2018-07-15T22:10:42.961Z,22.52
2018-07-15T22:13:10.520Z,21.92
2018-07-15T22:15:38.369Z,22.43
2018-07-15T22:18:06.197Z,22.36
2018-07-15T22:20:33.893Z,22.31
2018-07-15T22:23:01.654Z,22.25
2018-07-15T22:25:29.410Z,22.20
2018-07-15T22:27:57.056Z,22.16
2018-07-15T22:30:25.084Z,22.12
2018-07-15T22:32:52.827Z,22.06
2018-07-15T22:35:20.496Z,22.02
2018-07-15T22:37:48.543Z,21.99
2018-07-15T22:40:16.336Z,21.94
2018-07-15T22:42:43.984Z,21.91
2018-07-15T22:45:11.846Z,21.86
2018-07-15T22:47:39.631Z,21.82
2018-07-15T22:50:07.562Z,21.77
2018-07-15T22:52:35.456Z,21.73
2018-07-15T22:55:03.308Z,21.68
2018-07-15T22:57:30.936Z,21.64
2018-07-15T22:59:58.722Z,21.61
2018-07-15T23:02:26.588Z,21.58
2018-07-15T23:06:02.503Z,21.55
2018-07-15T23:08:31.226Z,21.47
2018-07-15T23:10:58.938Z,21.43
2018-07-15T23:13:26.652Z,21.39
2018-07-15T23:15:54.589Z,21.37
2018-07-15T23:18:22.380Z,21.34
2018-07-15T23:20:50.599Z,21.31
2018-07-15T23:23:18.383Z,21.27
2018-07-15T23:25:46.067Z,21.24
2018-07-15T23:28:14.571Z,21.22
2018-07-15T23:30:42.604Z,21.17
2018-07-15T23:33:10.563Z,21.15
2018-07-15T23:35:38.393Z,21.11
2018-07-15T23:38:06.347Z,21.07
2018-07-15T23:40:33.952Z,21.03
2018-07-15T23:43:01.888Z,20.99
2018-07-15T23:45:30.604Z,20.96
2018-07-15T23:47:58.190Z,20.93
2018-07-15T23:50:26.000Z,20.89
2018-07-15T23:52:54.014Z,20.85
2018-07-15T23:55:21.667Z,20.82
2018-07-15T23:57:49.307Z,20.78
